KIRS

Kirsch Municipal Airport

Sturgis, Michigan, USA
METAR KIRS 231115Z AUTO 00000KT 10SM SCT046 04/01 A3010 RMK AO2 T00420014
Observed Flight Rules
Oct-23 @ 11:15 UTC (34 minutes ago) Visual Flight Rules
Visibility Clouds
10 miles
  • Scattered at 4,600' AGL
Temperatures Readings
Current 4°C / 39°F
Dewpoint 1°C / 34°F
Humidity 81%
Altimeter 30.1" Hg
Pressure 1019 hPa
Elevation 282
METAR KIRS 231115Z AUTO 00000KT 10SM SCT046 04/01 A3010 RMK AO2 T00420014
Observed Flight Rules
Oct-23 @ 11:15 UTC
(34 minutes ago)
VFR
Clouds
  • Scattered at 4,600' AGL
Temperature Dewpoint
4°C / 39°F 1°C / 34°F
Humidity Altimeter Pressure
81% 30.1" Hg 1019 hPa